createdAt,value
2019-04-28T00:01:06.078Z,5.50
2019-04-28T00:03:35.035Z,5.50
2019-04-28T00:06:04.243Z,5.50
2019-04-28T00:08:33.291Z,5.50
2019-04-28T00:11:02.173Z,5.50
2019-04-28T00:13:32.103Z,5.50
2019-04-28T00:16:01.725Z,5.50
2019-04-28T00:18:31.719Z,5.50
2019-04-28T00:21:17.039Z,5.50
2019-04-28T00:24:08.122Z,5.40
2019-04-28T00:26:41.784Z,5.40
2019-04-28T00:29:11.209Z,5.40
2019-04-28T00:31:41.334Z,5.40
2019-04-28T00:34:11.472Z,5.30
2019-04-28T00:36:43.024Z,5.30
2019-04-28T00:39:12.409Z,5.30
2019-04-28T00:41:42.008Z,5.20
2019-04-28T00:44:11.943Z,5.20
2019-04-28T00:46:42.248Z,5.20
2019-04-28T00:49:11.839Z,5.20
2019-04-28T00:51:41.568Z,5.10
2019-04-28T00:54:12.095Z,5.10
2019-04-28T00:56:41.781Z,5.00
2019-04-28T00:59:11.805Z,5.00
2019-04-28T01:01:51.311Z,4.90
2019-04-28T01:04:21.942Z,4.80
2019-04-28T01:06:51.975Z,4.80
2019-04-28T01:09:21.796Z,4.80
2019-04-28T01:11:53.155Z,4.80
2019-04-28T01:14:21.616Z,4.80
2019-04-28T01:16:59.938Z,4.80
2019-04-28T01:19:32.098Z,4.80
2019-04-28T01:22:11.282Z,4.70
2019-04-28T01:24:40.435Z,4.70
2019-04-28T01:27:20.400Z,4.80
2019-04-28T01:29:49.900Z,4.90
2019-04-28T01:32:42.374Z,4.90
2019-04-28T01:35:11.510Z,4.90
2019-04-28T01:37:40.832Z,4.90
2019-04-28T01:40:10.565Z,4.90
2019-04-28T01:42:41.173Z,4.90
2019-04-28T01:45:10.610Z,4.80
2019-04-28T01:47:40.485Z,4.80
2019-04-28T01:50:10.251Z,4.80
2019-04-28T01:52:39.983Z,4.80
2019-04-28T01:55:10.173Z,4.80
2019-04-28T01:57:39.971Z,4.80
2019-04-28T02:00:21.925Z,4.90
2019-04-28T02:02:42.906Z,4.90
2019-04-28T02:05:30.930Z,4.90
2019-04-28T02:08:00.349Z,4.90
2019-04-28T02:10:30.128Z,4.90
2019-04-28T02:12:59.934Z,4.90
2019-04-28T02:15:30.219Z,4.90
2019-04-28T02:18:00.109Z,4.80
2019-04-28T02:20:30.127Z,4.80
2019-04-28T02:23:06.806Z,4.80
2019-04-28T02:25:35.690Z,4.80
2019-04-28T02:28:04.491Z,4.80
2019-04-28T02:30:47.956Z,4.80
2019-04-28T02:33:04.207Z,4.80
2019-04-28T02:35:34.272Z,4.80
2019-04-28T02:38:03.449Z,4.80
2019-04-28T02:40:32.253Z,4.70
2019-04-28T02:43:01.406Z,4.70
2019-04-28T02:45:31.601Z,4.80
2019-04-28T02:48:03.354Z,4.70
2019-04-28T02:51:06.608Z,4.80
2019-04-28T02:53:43.106Z,4.80
2019-04-28T02:56:12.080Z,4.80
2019-04-28T02:58:41.703Z,4.80
2019-04-28T03:01:21.498Z,4.80
2019-04-28T03:03:41.794Z,4.70
2019-04-28T03:06:10.892Z,4.70
2019-04-28T03:08:40.707Z,4.70
2019-04-28T03:11:10.705Z,4.70
2019-04-28T03:13:41.088Z,4.70
2019-04-28T03:16:10.929Z,4.70
2019-04-28T03:18:41.247Z,4.70
2019-04-28T03:21:11.462Z,4.70
2019-04-28T03:23:40.713Z,4.70
2019-04-28T03:26:35.047Z,4.70
2019-04-28T03:29:30.408Z,4.70
2019-04-28T03:32:24.786Z,4.70
2019-04-28T03:34:45.732Z,4.60
2019-04-28T03:37:14.606Z,4.50
2019-04-28T03:39:43.496Z,4.50
2019-04-28T03:42:12.446Z,4.50
2019-04-28T03:44:41.667Z,4.40
2019-04-28T03:47:10.932Z,4.40
2019-04-28T03:49:42.823Z,4.30
2019-04-28T03:52:10.889Z,4.30
2019-04-28T03:54:41.050Z,4.20
2019-04-28T03:57:11.492Z,4.20
2019-04-28T03:59:43.343Z,4.10
2019-04-28T04:02:11.679Z,4.00
2019-04-28T04:04:41.437Z,4.00
2019-04-28T04:07:11.201Z,3.90
2019-04-28T04:09:47.293Z,3.80
2019-04-28T04:12:40.975Z,3.90
2019-04-28T04:15:22.083Z,3.90
2019-04-28T04:18:02.551Z,3.90
2019-04-28T04:20:31.743Z,3.80
2019-04-28T04:23:01.480Z,3.90
2019-04-28T04:25:31.356Z,3.80
2019-04-28T04:28:03.591Z,3.80
2019-04-28T04:30:31.353Z,3.80
2019-04-28T04:33:01.313Z,3.80
2019-04-28T04:35:31.575Z,3.80
2019-04-28T04:38:00.915Z,3.80
2019-04-28T04:40:31.603Z,3.80
2019-04-28T04:43:01.633Z,3.80
2019-04-28T04:45:31.014Z,3.80
2019-04-28T04:48:00.715Z,3.80
2019-04-28T04:50:31.423Z,3.80
2019-04-28T04:53:02.585Z,3.90
2019-04-28T04:55:31.355Z,3.90
2019-04-28T04:58:00.836Z,4.00
2019-04-28T05:00:52.747Z,4.10
2019-04-28T05:03:25.370Z,4.10
2019-04-28T05:05:54.178Z,4.10
2019-04-28T05:08:22.995Z,4.10
2019-04-28T05:10:51.798Z,4.10
2019-04-28T05:13:20.607Z,4.20
2019-04-28T05:15:50.724Z,4.20
2019-04-28T05:18:20.070Z,4.30
2019-04-28T05:20:50.420Z,4.30
2019-04-28T05:23:56.833Z,4.30
2019-04-28T05:26:26.311Z,4.40
2019-04-28T05:28:55.365Z,4.40
2019-04-28T05:31:24.497Z,4.40
2019-04-28T05:33:53.363Z,4.40
2019-04-28T05:36:22.290Z,4.50
2019-04-28T05:38:51.338Z,4.60
2019-04-28T05:41:20.137Z,4.70
2019-04-28T05:43:50.461Z,4.90
2019-04-28T05:46:19.719Z,5.10
2019-04-28T05:49:03.234Z,5.40
2019-04-28T05:51:33.536Z,5.70
2019-04-28T05:54:11.022Z,6.10
2019-04-28T05:56:50.858Z,6.50
2019-04-28T05:59:40.346Z,6.80
2019-04-28T06:02:13.983Z,7.00
2019-04-28T06:04:42.803Z,7.50
2019-04-28T06:07:22.055Z,7.70
2019-04-28T06:09:52.235Z,7.70
2019-04-28T06:12:21.358Z,7.80
2019-04-28T06:14:51.419Z,8.20
2019-04-28T06:17:20.766Z,8.60
2019-04-28T06:19:50.435Z,8.60
2019-04-28T06:22:19.662Z,8.40
2019-04-28T06:24:48.558Z,8.50
2019-04-28T06:27:17.522Z,8.80
2019-04-28T06:29:46.487Z,8.80
2019-04-28T06:32:15.374Z,8.40
2019-04-28T06:34:44.282Z,8.30
2019-04-28T06:37:13.165Z,8.50
2019-04-28T06:39:42.235Z,8.70
2019-04-28T06:42:11.042Z,8.70
2019-04-28T06:44:39.858Z,8.90
2019-04-28T06:47:08.666Z,8.90
2019-04-28T06:49:37.556Z,8.60
2019-04-28T06:52:06.510Z,8.60
2019-04-28T06:54:35.567Z,8.20
2019-04-28T06:57:04.518Z,8.30
2019-04-28T06:59:33.630Z,8.70
2019-04-28T07:02:02.506Z,8.50
2019-04-28T07:04:31.481Z,8.10
2019-04-28T07:07:00.377Z,8.40
2019-04-28T07:09:29.331Z,9.00
2019-04-28T07:11:58.323Z,9.60
2019-04-28T07:14:27.138Z,9.50
2019-04-28T07:16:55.953Z,10.00
2019-04-28T07:19:24.885Z,9.90
2019-04-28T07:22:18.191Z,9.80
2019-04-28T07:24:46.998Z,9.10
2019-04-28T07:27:15.996Z,8.90
2019-04-28T07:29:44.911Z,9.70
2019-04-28T07:32:13.874Z,10.20
2019-04-28T07:34:42.767Z,11.20
2019-04-28T07:37:11.644Z,12.40
2019-04-28T07:39:40.560Z,12.00
2019-04-28T07:42:09.682Z,11.00
2019-04-28T07:44:38.506Z,10.10
2019-04-28T07:47:07.403Z,9.80
2019-04-28T07:49:36.243Z,10.40
2019-04-28T07:52:10.962Z,10.60
2019-04-28T07:54:40.180Z,10.20
2019-04-28T07:57:09.146Z,10.40
2019-04-28T07:59:38.050Z,9.60
2019-04-28T08:02:07.051Z,9.70
2019-04-28T08:04:36.002Z,9.60
2019-04-28T08:07:04.899Z,9.80
2019-04-28T08:09:33.867Z,10.00
2019-04-28T08:12:03.045Z,9.90
2019-04-28T08:14:31.947Z,9.60
2019-04-28T08:17:00.746Z,9.50
2019-04-28T08:19:30.192Z,9.20
2019-04-28T08:21:59.238Z,9.20
2019-04-28T08:24:28.143Z,10.00
2019-04-28T08:26:57.074Z,10.80
2019-04-28T08:29:25.886Z,10.90
2019-04-28T08:32:01.402Z,10.10
2019-04-28T08:34:30.214Z,9.90
2019-04-28T08:36:59.341Z,9.80
2019-04-28T08:39:28.147Z,9.70
2019-04-28T08:41:57.210Z,9.60
2019-04-28T08:44:26.345Z,9.60
2019-04-28T08:46:55.298Z,9.70
2019-04-28T08:49:24.195Z,10.00
2019-04-28T08:51:53.245Z,10.40
2019-04-28T08:54:22.214Z,10.80
2019-04-28T08:56:51.353Z,10.90
2019-04-28T08:59:20.245Z,11.10
2019-04-28T09:01:49.247Z,11.00
2019-04-28T09:04:18.338Z,11.20
2019-04-28T09:06:47.242Z,11.10
2019-04-28T09:09:17.765Z,11.00
2019-04-28T09:11:46.740Z,10.90
2019-04-28T09:14:15.558Z,10.70
2019-04-28T09:16:44.455Z,10.70
2019-04-28T09:19:13.266Z,10.70
2019-04-28T09:21:42.162Z,10.50
2019-04-28T09:24:11.282Z,10.40
2019-04-28T09:26:40.119Z,10.50
2019-04-28T09:29:09.234Z,10.50
2019-04-28T09:31:38.479Z,10.70
2019-04-28T09:34:07.523Z,11.10
2019-04-28T09:36:36.442Z,11.90
2019-04-28T09:39:07.282Z,12.80
2019-04-28T09:41:37.850Z,13.30
2019-04-28T09:44:13.342Z,12.60
2019-04-28T09:46:42.951Z,12.30
2019-04-28T09:49:11.831Z,12.40
2019-04-28T09:51:40.733Z,12.40
2019-04-28T09:54:09.630Z,12.70
2019-04-28T09:56:38.611Z,12.70
2019-04-28T09:59:07.428Z,14.10
2019-04-28T10:01:36.667Z,15.50
2019-04-28T10:04:06.110Z,16.40
2019-04-28T10:06:35.255Z,17.60
2019-04-28T10:09:06.362Z,18.40
2019-04-28T10:11:35.194Z,18.50
2019-04-28T10:14:04.149Z,19.90
2019-04-28T10:16:33.049Z,19.90
2019-04-28T10:19:01.864Z,19.10
2019-04-28T10:21:30.997Z,18.60
2019-04-28T10:23:59.838Z,18.10
2019-04-28T10:26:28.755Z,17.70
2019-04-28T10:28:57.566Z,16.50
2019-04-28T10:31:26.466Z,15.40
2019-04-28T10:33:58.719Z,14.50
2019-04-28T10:36:29.998Z,13.80
2019-04-28T10:39:18.814Z,12.80
2019-04-28T10:41:47.717Z,12.50
2019-04-28T10:44:16.671Z,12.10
2019-04-28T10:46:45.830Z,12.10
2019-04-28T10:49:14.718Z,12.20
2019-04-28T10:51:43.618Z,12.00
2019-04-28T10:54:12.530Z,12.20
2019-04-28T10:56:41.489Z,11.60
2019-04-28T10:59:10.524Z,11.80
2019-04-28T11:01:39.411Z,12.10
2019-04-28T11:04:12.526Z,12.40
2019-04-28T11:06:41.438Z,12.70
2019-04-28T11:09:30.293Z,13.10
2019-04-28T11:11:54.527Z,13.50
2019-04-28T11:14:23.410Z,13.20
2019-04-28T11:16:52.375Z,13.40
2019-04-28T11:19:21.203Z,13.90
2019-04-28T11:21:50.106Z,14.20
2019-04-28T11:24:18.942Z,13.90
2019-04-28T11:26:47.771Z,13.90
2019-04-28T11:29:16.662Z,13.30
2019-04-28T11:31:45.550Z,13.00
2019-04-28T11:34:29.857Z,12.40
2019-04-28T11:36:58.838Z,12.40
2019-04-28T11:39:31.766Z,12.90
2019-04-28T11:42:00.926Z,13.40
2019-04-28T11:44:29.830Z,14.20
2019-04-28T11:47:19.743Z,14.80
2019-04-28T11:49:48.627Z,15.60
2019-04-28T11:52:17.514Z,15.70
2019-04-28T11:54:46.342Z,15.50
2019-04-28T11:57:15.170Z,15.20
2019-04-28T12:00:05.506Z,13.80
2019-04-28T12:02:34.862Z,13.40
2019-04-28T12:05:34.349Z,13.80
2019-04-28T12:07:55.862Z,13.30
2019-04-28T12:11:03.043Z,13.30
2019-04-28T12:13:39.347Z,13.40
2019-04-28T12:16:26.036Z,13.40
2019-04-28T12:19:13.970Z,13.00
2019-04-28T12:21:43.056Z,12.90
2019-04-28T12:24:12.586Z,13.10
2019-04-28T12:26:41.477Z,12.60
2019-04-28T12:29:10.376Z,12.70
2019-04-28T12:31:39.253Z,13.20
2019-04-28T12:34:08.295Z,13.10
2019-04-28T12:36:37.242Z,14.20
2019-04-28T12:39:08.033Z,14.70
2019-04-28T12:41:36.914Z,15.40
2019-04-28T12:44:05.987Z,14.50
2019-04-28T12:46:35.038Z,13.80
2019-04-28T12:49:10.967Z,14.70
2019-04-28T12:51:39.815Z,14.70
2019-04-28T12:54:10.546Z,15.10
2019-04-28T12:56:39.354Z,15.90
2019-04-28T12:59:14.624Z,15.90
2019-04-28T13:01:54.046Z,15.00
2019-04-28T13:04:27.415Z,15.00
2019-04-28T13:07:03.401Z,14.60
2019-04-28T13:09:32.594Z,13.60
2019-04-28T13:12:01.568Z,13.30
2019-04-28T13:14:30.625Z,12.90
2019-04-28T13:16:59.437Z,13.10
2019-04-28T13:19:28.411Z,13.70
2019-04-28T13:21:57.309Z,14.00
2019-04-28T13:24:26.135Z,14.20
2019-04-28T13:26:55.110Z,14.70
2019-04-28T13:29:23.927Z,15.20
2019-04-28T13:31:52.749Z,15.00
2019-04-28T13:34:23.165Z,14.80
2019-04-28T13:36:52.030Z,14.60
2019-04-28T13:39:30.594Z,14.80
2019-04-28T13:41:59.491Z,14.50
2019-04-28T13:44:46.308Z,14.10
2019-04-28T13:47:15.284Z,13.50
2019-04-28T13:49:53.295Z,13.40
2019-04-28T13:52:22.206Z,13.20
2019-04-28T13:54:53.908Z,13.40
2019-04-28T13:57:22.792Z,13.20
2019-04-28T13:59:54.846Z,13.00
2019-04-28T14:02:31.306Z,12.70
2019-04-28T14:05:13.216Z,12.70
2019-04-28T14:07:42.039Z,12.80
2019-04-28T14:10:11.142Z,12.90
2019-04-28T14:12:40.003Z,12.90
2019-04-28T14:15:08.988Z,12.80
2019-04-28T14:17:37.894Z,12.80
2019-04-28T14:20:06.826Z,12.70
2019-04-28T14:22:35.711Z,12.60
2019-04-28T14:25:05.234Z,12.70
2019-04-28T14:27:34.161Z,12.80
2019-04-28T14:30:03.258Z,12.80
2019-04-28T14:32:32.062Z,12.90
2019-04-28T14:35:00.943Z,13.00
2019-04-28T14:37:29.774Z,13.00
2019-04-28T14:39:58.614Z,13.30
2019-04-28T14:42:27.549Z,13.40
2019-04-28T14:44:56.422Z,13.40
2019-04-28T14:47:25.239Z,13.40
2019-04-28T14:49:54.085Z,13.80
2019-04-28T14:52:22.883Z,13.90
2019-04-28T14:54:51.702Z,13.70
2019-04-28T14:57:20.611Z,13.80
2019-04-28T14:59:49.481Z,13.40
2019-04-28T15:02:26.053Z,13.40
2019-04-28T15:05:15.718Z,13.30
2019-04-28T15:08:00.798Z,13.20
2019-04-28T15:11:07.267Z,13.00
2019-04-28T15:13:36.301Z,13.00
2019-04-28T15:16:05.327Z,13.20
2019-04-28T15:18:34.271Z,13.00
2019-04-28T15:21:03.178Z,12.80
2019-04-28T15:23:32.378Z,13.00
2019-04-28T15:26:01.287Z,13.20
2019-04-28T15:28:30.249Z,13.30
2019-04-28T15:30:59.143Z,13.40
2019-04-28T15:33:28.430Z,13.70
2019-04-28T15:35:57.739Z,13.90
2019-04-28T15:38:26.867Z,13.50
2019-04-28T15:40:55.767Z,13.20
2019-04-28T15:43:24.578Z,13.40
2019-04-28T15:45:53.558Z,13.50
2019-04-28T15:48:22.441Z,13.70
2019-04-28T15:50:51.334Z,13.80
2019-04-28T15:53:20.442Z,13.70
2019-04-28T15:55:55.939Z,13.60
2019-04-28T15:58:35.747Z,13.40
2019-04-28T16:01:05.254Z,13.40
2019-04-28T16:03:34.220Z,13.30
2019-04-28T16:06:03.115Z,13.20
2019-04-28T16:08:32.074Z,13.10
2019-04-28T16:11:00.967Z,13.10
2019-04-28T16:13:29.867Z,12.90
2019-04-28T16:15:58.688Z,12.80
2019-04-28T16:18:27.671Z,12.80
2019-04-28T16:20:56.778Z,12.70
2019-04-28T16:23:25.727Z,12.60
2019-04-28T16:25:54.529Z,12.60
2019-04-28T16:28:23.381Z,12.50
2019-04-28T16:30:52.243Z,12.40
2019-04-28T16:33:21.145Z,12.30
2019-04-28T16:35:49.954Z,12.30
2019-04-28T16:38:18.771Z,12.20
2019-04-28T16:40:47.667Z,12.30
2019-04-28T16:43:16.566Z,12.20
2019-04-28T16:45:45.791Z,12.10
2019-04-28T16:48:14.786Z,12.00
2019-04-28T16:50:43.746Z,12.00
2019-04-28T16:53:12.579Z,12.00
2019-04-28T16:56:01.511Z,12.00
2019-04-28T16:58:39.554Z,11.90
2019-04-28T17:01:26.261Z,11.90
2019-04-28T17:03:55.327Z,11.90
2019-04-28T17:06:24.388Z,11.80
2019-04-28T17:08:53.234Z,11.70
2019-04-28T17:11:22.041Z,11.70
2019-04-28T17:13:50.880Z,11.70
2019-04-28T17:16:19.701Z,11.60
2019-04-28T17:18:48.891Z,11.40
2019-04-28T17:21:17.780Z,11.40
2019-04-28T17:23:46.613Z,11.20
2019-04-28T17:26:15.652Z,11.00
2019-04-28T17:28:44.552Z,11.00
2019-04-28T17:31:13.442Z,10.80
2019-04-28T17:33:42.357Z,10.70
2019-04-28T17:36:11.488Z,10.50
2019-04-28T17:38:40.309Z,10.40
2019-04-28T17:41:09.534Z,10.20
2019-04-28T17:43:38.446Z,10.00
2019-04-28T17:46:07.724Z,9.80
2019-04-28T17:48:39.542Z,9.60
2019-04-28T17:51:08.506Z,9.50
2019-04-28T17:53:37.402Z,9.30
2019-04-28T17:56:06.360Z,9.10
2019-04-28T17:58:35.181Z,9.00
2019-04-28T18:01:25.910Z,8.90
2019-04-28T18:04:15.406Z,8.80
2019-04-28T18:06:46.702Z,8.70
2019-04-28T18:09:15.714Z,8.60
2019-04-28T18:11:44.665Z,8.50
2019-04-28T18:14:13.562Z,8.50
2019-04-28T18:17:00.970Z,8.30
2019-04-28T18:19:30.468Z,8.30
2019-04-28T18:21:59.354Z,8.10
2019-04-28T18:24:28.254Z,8.00
2019-04-28T18:26:57.073Z,7.80
2019-04-28T18:29:25.914Z,7.70
2019-04-28T18:32:06.029Z,7.60
2019-04-28T18:34:56.950Z,7.50
2019-04-28T18:37:44.838Z,7.40
2019-04-28T18:40:22.165Z,7.20
2019-04-28T18:42:57.845Z,7.10
2019-04-28T18:45:26.742Z,7.00
2019-04-28T18:47:55.687Z,6.90
2019-04-28T18:50:24.582Z,6.70
2019-04-28T18:52:53.378Z,6.60
2019-04-28T18:55:23.253Z,6.50
2019-04-28T18:57:52.061Z,6.50
2019-04-28T19:00:22.627Z,6.40
2019-04-28T19:02:51.442Z,6.30
2019-04-28T19:05:22.086Z,6.30
2019-04-28T19:08:12.766Z,6.20
2019-04-28T19:10:56.386Z,6.10
2019-04-28T19:13:28.102Z,6.00
2019-04-28T19:16:31.451Z,5.90
2019-04-28T19:19:03.314Z,5.80
2019-04-28T19:21:32.137Z,5.80
2019-04-28T19:24:01.202Z,5.70
2019-04-28T19:26:30.006Z,5.70
2019-04-28T19:28:58.902Z,5.70
2019-04-28T19:31:27.731Z,5.60
2019-04-28T19:33:56.643Z,5.50
2019-04-28T19:36:25.446Z,5.40
2019-04-28T19:39:03.002Z,5.40
2019-04-28T19:41:24.798Z,5.30
2019-04-28T19:43:53.605Z,5.20
2019-04-28T19:46:22.610Z,5.20
2019-04-28T19:48:51.430Z,5.20
2019-04-28T19:51:31.218Z,5.20
2019-04-28T19:53:51.444Z,5.10
2019-04-28T19:56:33.151Z,5.10
2019-04-28T19:59:27.306Z,5.10
2019-04-28T20:01:56.452Z,5.00
2019-04-28T20:04:25.651Z,4.90
2019-04-28T20:06:54.729Z,4.80
2019-04-28T20:09:23.616Z,4.70
2019-04-28T20:11:52.438Z,4.60
2019-04-28T20:14:21.497Z,4.50
2019-04-28T20:16:50.406Z,4.40
2019-04-28T20:19:19.523Z,4.30
2019-04-28T20:21:48.586Z,4.20
2019-04-28T20:24:19.518Z,4.10
2019-04-28T20:26:47.946Z,4.00
2019-04-28T20:29:16.991Z,3.90
2019-04-28T20:31:45.892Z,3.90
2019-04-28T20:34:14.694Z,3.80
2019-04-28T20:36:51.391Z,3.70
2019-04-28T20:39:28.141Z,3.70
2019-04-28T20:41:59.411Z,3.60
2019-04-28T20:44:28.215Z,3.50
2019-04-28T20:46:57.077Z,3.40
2019-04-28T20:49:25.918Z,3.30
2019-04-28T20:51:54.950Z,3.20
2019-04-28T20:54:23.992Z,3.20
2019-04-28T20:56:52.807Z,3.10
2019-04-28T20:59:21.618Z,3.00
2019-04-28T21:01:50.564Z,2.90
2019-04-28T21:04:19.399Z,2.90
2019-04-28T21:06:48.222Z,2.80
2019-04-28T21:09:17.042Z,2.80
2019-04-28T21:11:45.846Z,2.80
2019-04-28T21:14:14.654Z,2.70
2019-04-28T21:16:43.478Z,2.70
2019-04-28T21:19:12.287Z,2.70
2019-04-28T21:21:41.186Z,2.60
2019-04-28T21:24:10.230Z,2.60
2019-04-28T21:26:39.047Z,2.60
2019-04-28T21:29:07.926Z,2.50
2019-04-28T21:31:36.746Z,2.50
2019-04-28T21:34:08.918Z,2.50
2019-04-28T21:36:37.739Z,2.40
2019-04-28T21:39:09.035Z,2.40
2019-04-28T21:41:37.851Z,2.40
2019-04-28T21:44:31.127Z,2.40
2019-04-28T21:47:13.090Z,2.40
2019-04-28T21:49:42.522Z,2.30
2019-04-28T21:52:11.645Z,2.20
2019-04-28T21:54:40.524Z,2.20
2019-04-28T21:57:09.416Z,2.20
2019-04-28T21:59:38.330Z,2.20
2019-04-28T22:02:07.706Z,2.20
2019-04-28T22:04:36.507Z,2.20
2019-04-28T22:07:05.469Z,2.20
2019-04-28T22:09:43.566Z,2.20
2019-04-28T22:12:12.530Z,2.10
2019-04-28T22:14:41.346Z,2.10
2019-04-28T22:17:10.158Z,2.10
2019-04-28T22:19:39.030Z,2.10
2019-04-28T22:22:07.859Z,2.10
2019-04-28T22:24:41.734Z,2.10
2019-04-28T22:27:13.119Z,2.00
2019-04-28T22:29:41.933Z,2.00
2019-04-28T22:32:11.072Z,2.00
2019-04-28T22:34:39.946Z,1.90
2019-04-28T22:37:08.906Z,1.90
2019-04-28T22:39:37.866Z,1.80
2019-04-28T22:42:06.852Z,1.80
2019-04-28T22:44:35.954Z,1.70
2019-04-28T22:47:04.918Z,1.70
2019-04-28T22:49:34.026Z,1.60
2019-04-28T22:52:02.846Z,1.50
2019-04-28T22:55:05.910Z,1.40
2019-04-28T22:57:56.839Z,1.40
2019-04-28T23:01:03.546Z,1.30
2019-04-28T23:03:38.453Z,1.30
2019-04-28T23:06:10.330Z,1.30
2019-04-28T23:08:38.178Z,1.20
2019-04-28T23:11:07.136Z,1.10
2019-04-28T23:13:36.057Z,1.10
2019-04-28T23:16:05.291Z,1.00
2019-04-28T23:18:34.486Z,1.00
2019-04-28T23:21:08.018Z,0.90
2019-04-28T23:23:56.159Z,0.90
2019-04-28T23:26:25.082Z,0.90
2019-04-28T23:28:54.010Z,0.90
2019-04-28T23:31:22.928Z,0.90
2019-04-28T23:33:52.050Z,0.90
2019-04-28T23:36:20.888Z,1.00
2019-04-28T23:38:50.062Z,1.00
2019-04-28T23:41:29.743Z,1.00
2019-04-28T23:43:58.666Z,1.00
2019-04-28T23:46:46.965Z,1.00
2019-04-28T23:49:16.037Z,1.00
2019-04-28T23:51:52.052Z,1.00
2019-04-28T23:54:20.982Z,1.10
2019-04-28T23:56:49.829Z,1.10
2019-04-28T23:59:18.690Z,1.10
